KSPK Airport (Spanish Fork Arpt Springville-Woodhouse Field) Information

FAA: SPK - ICAO: KSPK

KSPK Airport Location

State Utah
County Utah
City Spanish Fork
KSPK Airport is 2 miles north of Spanish Fork, UT.
Latitude 40-08-42.1000N
Longitude 111-40-03.7000W
Elevation 4,529ft

KSPK Airport METARs

METAR KSPK 250115Z AUTO 11015G22KT 10SM FEW043 SCT060 BKN075 16/04 A2979 RMK AO2
Altimeter 29.79"
Temperature 16.0°C (60.8°F)
Wind 110° at 15KT with gusts to 22KT
Clouds few at 4,300ft scattered at 6,000ft broken at 7,500ft
Visibility 10.0mi
Time observed: 2021-10-25T01:15:00Z

KSPK Airport Details

Status Operational
Activation October 2017
Ownership Public
Usage Public
Chart SALT LAKE CITY
ATC on-site No
Beacon schedule sunset-sunrise
Beacon color clear green

KSPK Airport Contacts

Owner SPANISH FORK & SPRINGVILLE
Owner address 2050 NORTH 300 WEST, SPANISH FORK, UT 84660
Owner phone 801-798-5000
Manager STEVEN R. GLEASON
Manager address P. O. BOX 1849, PROVO, UT 84603
Manager phone 801-852-6715

KSPK Airport (Spanish Fork Arpt Springville-Woodhouse Field) Radio Frequencies

KSPK (Airport) Radio Frequencies

UNICOM N/A
Common traffic advisory frequency (CTAF) 122.9